Time;durP1;ratioP1;P1;durP2;ratioP2;P2;SDS_P1;SDS_P2;PMS_P1;PMS_P2;Temp;Humidity;BMP_temperature;BMP_pressure;BME280_temperature;BME280_humidity;BME280_pressure;Samples;Min_cycle;Max_cycle;Signal;HPM_P1;HPM_P2
2020/12/09 00:01:56;;;;;;;15.85;11.43;;;;;;;20.33;36.57;99135.94;4995572;28;20037;-77
2020/12/09 00:04:22;;;;;;;18.17;12.38;;;;;;;20.32;36.53;99140.34;4994580;28;20038;-77
2020/12/09 00:06:49;;;;;;;14.77;11.45;;;;;;;20.34;36.45;99142.94;4995688;28;20113;-74
2020/12/09 00:09:17;;;;;;;16.67;11.85;;;;;;;20.33;36.48;99146.47;4998847;28;20506;-78
2020/12/09 00:11:42;;;;;;;16.30;11.27;;;;;;;20.34;36.51;99148.19;5014832;28;20045;-80
2020/12/09 00:14:09;;;;;;;15.88;11.98;;;;;;;20.33;36.29;99144.69;5015446;28;20041;-77
2020/12/09 00:16:34;;;;;;;16.48;12.13;;;;;;;20.33;36.48;99143.84;5010702;28;20041;-80
2020/12/09 00:19:03;;;;;;;17.10;12.02;;;;;;;20.31;36.39;99143.91;4993889;28;20038;-78
2020/12/09 00:21:29;;;;;;;16.55;12.18;;;;;;;20.33;36.38;99152.56;5010552;28;20061;-77
2020/12/09 00:23:54;;;;;;;16.35;11.25;;;;;;;20.34;36.50;99153.44;4995247;28;20065;-77
2020/12/09 00:26:21;;;;;;;16.90;11.70;;;;;;;20.34;36.20;99156.91;4994096;28;20038;-79
2020/12/09 00:28:48;;;;;;;17.38;11.73;;;;;;;20.33;36.36;99154.38;4994130;28;20101;-76
2020/12/09 00:31:14;;;;;;;17.38;12.38;;;;;;;20.32;36.45;99156.13;4995063;28;20134;-78
2020/12/09 00:33:40;;;;;;;16.73;11.98;;;;;;;20.32;36.42;99164.00;4993837;28;20537;-78
2020/12/09 00:36:05;;;;;;;15.05;11.82;;;;;;;20.31;36.34;99167.59;4994088;28;20034;-78
2020/12/09 00:38:31;;;;;;;14.63;11.15;;;;;;;20.32;36.22;99164.00;4995297;28;20112;-78
2020/12/09 00:40:57;;;;;;;18.92;12.13;;;;;;;20.31;36.14;99172.84;4994883;28;20042;-78
2020/12/09 00:43:23;;;;;;;16.75;12.40;;;;;;;20.30;36.48;99173.75;4994680;28;20039;-76
2020/12/09 00:45:48;;;;;;;15.10;11.25;;;;;;;20.32;36.35;99171.91;4993620;28;20064;-79
2020/12/09 00:48:16;;;;;;;15.27;11.48;;;;;;;20.30;36.55;99181.66;4993612;28;20120;-76
2020/12/09 00:50:41;;;;;;;15.30;11.48;;;;;;;20.34;36.34;99182.38;5000795;28;20515;-75
2020/12/09 00:53:07;;;;;;;16.13;11.25;;;;;;;20.29;36.40;99182.56;4997094;28;20239;-79
2020/12/09 00:55:32;;;;;;;14.93;11.23;;;;;;;20.30;36.54;99168.50;5014012;28;20042;-77
2020/12/09 00:57:57;;;;;;;14.48;11.85;;;;;;;20.31;36.48;99178.13;5014376;28;20034;-79
2020/12/09 01:00:23;;;;;;;18.20;12.15;;;;;;;20.31;36.32;99164.09;5013165;28;20446;-78
2020/12/09 01:02:48;;;;;;;14.75;11.40;;;;;;;20.32;36.26;99160.53;5012423;28;20475;-77
2020/12/09 01:05:14;;;;;;;15.93;11.45;;;;;;;20.31;36.45;99169.34;5014237;28;20077;-79
2020/12/09 01:07:40;;;;;;;16.23;11.65;;;;;;;20.32;36.66;99163.16;5014108;28;20414;-75
2020/12/09 01:10:07;;;;;;;15.30;11.45;;;;;;;20.31;36.52;99162.31;5012666;28;20455;-79
2020/12/09 01:12:34;;;;;;;17.65;12.25;;;;;;;20.31;36.43;99167.59;5013883;28;20041;-78
2020/12/09 01:14:59;;;;;;;16.27;12.02;;;;;;;20.32;36.47;99176.31;5012725;28;20042;-78
2020/12/09 01:17:25;;;;;;;16.55;11.40;;;;;;;20.31;36.71;99180.75;4996431;28;20049;-77
2020/12/09 01:19:50;;;;;;;14.25;10.82;;;;;;;20.29;36.47;99179.06;4993042;28;20038;-78
2020/12/09 01:22:16;;;;;;;15.60;10.95;;;;;;;20.31;36.41;99182.50;5009345;28;20049;-78
2020/12/09 01:24:41;;;;;;;15.25;11.55;;;;;;;20.30;36.48;99186.91;4993859;28;20038;-79
2020/12/09 01:27:06;;;;;;;15.65;11.80;;;;;;;20.28;36.24;99194.00;4994436;28;20035;-77
2020/12/09 01:29:32;;;;;;;14.60;11.68;;;;;;;20.30;36.37;99200.06;4994504;28;20115;-77
2020/12/09 01:31:58;;;;;;;14.38;11.00;;;;;;;20.29;36.44;99203.63;4994094;28;20046;-77
2020/12/09 01:34:25;;;;;;;13.95;10.55;;;;;;;20.30;36.47;99202.69;4992351;28;20037;-76
2020/12/09 01:36:51;;;;;;;14.57;11.05;;;;;;;20.31;35.90;99201.78;4992530;28;20041;-78
2020/12/09 01:39:16;;;;;;;15.90;10.65;;;;;;;20.29;36.29;99198.34;4994002;28;20498;-77
2020/12/09 01:41:42;;;;;;;15.23;12.00;;;;;;;20.30;36.28;99205.34;4992480;28;20149;-77
2020/12/09 01:44:07;;;;;;;16.77;12.00;;;;;;;20.30;36.23;99209.72;4993894;28;20077;-79
2020/12/09 01:46:33;;;;;;;15.15;10.85;;;;;;;20.29;36.49;99210.63;4976033;28;20030;-77
2020/12/09 01:49:00;;;;;;;16.17;12.10;;;;;;;20.28;36.14;99222.06;4993039;28;20034;-76
2020/12/09 01:51:27;;;;;;;14.93;11.20;;;;;;;20.27;36.41;99215.09;5002047;28;20536;-78
2020/12/09 01:53:54;;;;;;;15.95;11.50;;;;;;;20.31;36.46;99219.34;5015085;28;20049;-76
2020/12/09 01:56:20;;;;;;;14.48;10.27;;;;;;;20.31;36.45;99214.94;4977038;28;20030;-76
2020/12/09 01:58:47;;;;;;;13.70;11.20;;;;;;;20.29;36.40;99215.91;4994481;28;20089;-77
2020/12/09 02:01:13;;;;;;;13.55;10.32;;;;;;;20.28;36.24;99214.19;5008685;28;20034;-77
2020/12/09 02:03:39;;;;;;;15.38;10.45;;;;;;;20.29;36.27;99221.16;4992313;28;20033;-80
2020/12/09 02:06:05;;;;;;;14.00;9.88;;;;;;;20.27;36.35;99221.22;4991992;28;20070;-78
2020/12/09 02:08:31;;;;;;;12.73;10.18;;;;;;;20.31;36.20;99217.56;4993296;28;20039;-79
2020/12/09 02:11:01;;;;;;;13.85;10.70;;;;;;;20.29;35.98;99219.41;4992070;28;20041;-77
2020/12/09 02:13:27;;;;;;;12.68;9.88;;;;;;;20.29;36.15;99222.03;4993114;28;20392;-79
2020/12/09 02:15:53;;;;;;;12.98;9.68;;;;;;;20.30;36.22;99222.88;4979826;28;20490;-78
2020/12/09 02:18:19;;;;;;;11.73;9.40;;;;;;;20.28;36.15;99230.84;5011379;28;20053;-79
2020/12/09 02:20:44;;;;;;;14.73;10.57;;;;;;;20.28;36.21;99222.94;5011417;28;20029;-78
2020/12/09 02:23:12;;;;;;;14.65;10.10;;;;;;;20.27;36.15;99226.50;5012805;28;20042;-79
2020/12/09 02:25:37;;;;;;;13.13;9.90;;;;;;;20.30;36.08;99222.88;5011539;28;20088;-77
2020/12/09 02:28:03;;;;;;;12.00;9.70;;;;;;;20.30;36.01;99223.75;5011551;28;20041;-76
2020/12/09 02:30:29;;;;;;;12.55;9.60;;;;;;;20.30;36.24;99223.75;5012782;28;20088;-80
2020/12/09 02:32:54;;;;;;;12.95;10.30;;;;;;;20.29;36.01;99219.41;5012513;28;20065;-76
2020/12/09 02:35:20;;;;;;;11.63;9.23;;;;;;;20.28;36.17;99228.22;5011365;28;20046;-77
2020/12/09 02:37:45;;;;;;;12.48;9.52;;;;;;;20.31;36.12;99232.50;4994797;28;20052;-78
2020/12/09 02:40:11;;;;;;;12.93;9.25;;;;;;;20.28;36.29;99228.22;4975240;28;20034;-77
2020/12/09 02:42:39;;;;;;;13.77;10.73;;;;;;;20.29;36.25;99229.06;4992651;28;20042;-76
2020/12/09 02:45:05;;;;;;;11.90;9.30;;;;;;;20.30;36.00;99229.00;4991413;28;20092;-76
2020/12/09 02:47:30;;;;;;;12.02;9.18;;;;;;;20.28;36.22;99230.84;4992665;28;20043;-77
2020/12/09 02:49:55;;;;;;;12.05;8.93;;;;;;;20.28;36.51;99224.69;4992596;28;20476;-77
2020/12/09 02:52:21;;;;;;;11.98;9.18;;;;;;;20.28;36.37;99229.97;4992360;28;20038;-77
2020/12/09 02:54:46;;;;;;;11.45;9.55;;;;;;;20.28;36.20;99233.47;4990880;28;20511;-79
2020/12/09 02:57:12;;;;;;;10.95;9.25;;;;;;;20.29;36.41;99231.69;4990828;28;20038;-77
2020/12/09 02:59:37;;;;;;;11.63;9.25;;;;;;;20.28;36.07;99225.59;4991113;28;20125;-78
2020/12/09 03:02:03;;;;;;;11.93;9.15;;;;;;;20.31;36.10;99232.50;4992384;28;20034;-76
2020/12/09 03:04:28;;;;;;;14.50;10.35;;;;;;;20.28;36.08;99230.84;5007741;28;20070;-79
2020/12/09 03:06:53;;;;;;;13.52;9.85;;;;;;;20.28;36.22;99230.84;4992020;28;20077;-77
2020/12/09 03:09:19;;;;;;;11.20;9.10;;;;;;;20.28;36.48;99227.34;4992565;28;20122;-78
2020/12/09 03:11:44;;;;;;;12.35;9.38;;;;;;;20.28;36.16;99222.94;4992231;28;20414;-76
2020/12/09 03:14:10;;;;;;;10.65;9.25;;;;;;;20.29;36.21;99224.66;4991183;28;20042;-78
2020/12/09 03:16:35;;;;;;;10.88;8.60;;;;;;;20.29;36.05;99229.94;4992168;28;20503;-77
2020/12/09 03:19:01;;;;;;;11.63;9.10;;;;;;;20.29;36.09;99231.69;4992320;28;20042;-77
2020/12/09 03:21:26;;;;;;;12.40;9.13;;;;;;;20.30;36.22;99229.00;4992222;28;20479;-78
2020/12/09 03:23:51;;;;;;;10.80;9.18;;;;;;;20.29;36.22;99229.94;4992367;28;20447;-78
2020/12/09 03:26:17;;;;;;;11.68;9.68;;;;;;;20.29;36.07;99232.56;4993558;28;20069;-77
2020/12/09 03:28:43;;;;;;;10.75;8.55;;;;;;;20.27;36.02;99237.00;4997820;28;20125;-76
2020/12/09 03:31:10;;;;;;;13.85;10.10;;;;;;;20.29;36.05;99250.97;4997459;28;20034;-75
2020/12/09 03:33:35;;;;;;;11.65;9.38;;;;;;;20.29;36.17;99250.97;4997659;28;20046;-78
2020/12/09 03:36:02;;;;;;;12.20;9.10;;;;;;;20.28;36.09;99262.41;4995601;28;20030;-78
2020/12/09 03:38:28;;;;;;;11.77;9.32;;;;;;;20.29;36.28;99266.75;4996507;28;20659;-77
2020/12/09 03:40:53;;;;;;;11.85;8.73;;;;;;;20.30;35.87;99262.34;4997936;28;20040;-76
2020/12/09 03:43:19;;;;;;;12.23;8.55;;;;;;;20.28;36.21;99267.66;4998359;28;20034;-76
2020/12/09 03:45:44;;;;;;;12.57;9.32;;;;;;;20.29;36.15;99263.25;4997680;28;20042;-75
2020/12/09 03:48:10;;;;;;;11.43;8.93;;;;;;;20.29;36.05;99263.25;4998693;28;20050;-77
2020/12/09 03:50:36;;;;;;;10.45;8.40;;;;;;;20.30;35.92;99263.22;5002026;28;20061;-77
2020/12/09 03:53:02;;;;;;;10.95;8.80;;;;;;;20.29;36.10;99266.75;5011685;28;20080;-77
2020/12/09 03:55:28;;;;;;;9.15;7.82;;;;;;;20.29;36.03;99281.66;5010662;28;20534;-78
2020/12/09 03:57:53;;;;;;;11.00;8.93;;;;;;;20.29;36.08;99268.50;4997311;28;20058;-77
2020/12/09 04:00:19;;;;;;;11.25;8.77;;;;;;;20.28;36.11;99287.84;4995420;28;20124;-76
2020/12/09 04:02:45;;;;;;;10.50;8.32;;;;;;;20.29;36.23;99294.81;4996659;28;20119;-75
2020/12/09 04:05:11;;;;;;;9.77;8.25;;;;;;;20.26;36.11;99287.91;5014850;28;20402;-76
2020/12/09 04:07:36;;;;;;;9.63;8.32;;;;;;;20.27;36.10;99286.13;5016266;28;20056;-79
2020/12/09 04:10:04;;;;;;;10.07;8.02;;;;;;;20.26;36.46;99287.03;5014821;28;20572;-77
2020/12/09 04:12:29;;;;;;;10.95;8.27;;;;;;;20.27;36.17;99294.88;5016451;28;20030;-76
2020/12/09 04:14:55;;;;;;;9.18;7.80;;;;;;;20.27;35.99;99287.00;5018117;28;20448;-77
2020/12/09 04:17:20;;;;;;;10.60;7.60;;;;;;;20.30;36.14;99291.28;5016824;28;20438;-79
2020/12/09 04:19:47;;;;;;;9.85;8.00;;;;;;;20.28;36.24;99286.09;5016431;28;20040;-79
2020/12/09 04:22:12;;;;;;;9.05;7.25;;;;;;;20.27;36.13;99289.63;5016636;28;20112;-78
2020/12/09 04:24:38;;;;;;;9.60;8.13;;;;;;;20.27;36.02;99291.38;5017752;28;20124;-77
2020/12/09 04:27:05;;;;;;;10.25;7.53;;;;;;;20.26;35.93;99290.53;5017977;28;20034;-79
2020/12/09 04:29:31;;;;;;;9.35;7.13;;;;;;;20.27;35.82;99289.63;5018180;28;20030;-80
2020/12/09 04:31:58;;;;;;;9.73;7.05;;;;;;;20.27;35.99;99284.38;5016350;28;20118;-77
2020/12/09 04:34:23;;;;;;;9.65;7.65;;;;;;;20.29;36.09;99286.94;5016415;28;20505;-77
2020/12/09 04:36:49;;;;;;;8.75;7.13;;;;;;;20.27;36.13;99296.66;5016488;28;20026;-79
2020/12/09 04:39:19;;;;;;;8.98;8.00;;;;;;;20.27;36.06;99291.38;5012784;28;20569;-79
2020/12/09 04:41:45;;;;;;;9.32;7.30;;;;;;;20.26;36.09;99293.16;5013299;28;20038;-77
2020/12/09 04:44:11;;;;;;;8.88;7.45;;;;;;;20.29;35.96;99300.97;5013353;28;20045;-78
2020/12/09 04:46:45;;;;;;;9.55;7.40;;;;;;;20.27;36.02;99301.91;5013137;28;20038;-77
2020/12/09 04:49:17;;;;;;;8.85;7.05;;;;;;;20.28;36.18;99295.75;5014276;28;20088;-79
2020/12/09 04:52:07;;;;;;;8.30;6.70;;;;;;;20.28;35.93;99293.09;5002002;28;20043;-77
2020/12/09 04:54:38;;;;;;;7.65;6.43;;;;;;;20.28;36.18;99299.25;4977238;28;20129;-78
2020/12/09 04:57:18;;;;;;;7.20;6.07;;;;;;;20.24;36.12;99300.25;4993803;28;20030;-76
2020/12/09 05:00:09;;;;;;;8.77;6.95;;;;;;;20.27;36.15;99288.75;4994626;28;20034;-79
2020/12/09 05:02:40;;;;;;;7.38;6.28;;;;;;;20.27;36.03;99299.28;5008538;28;20097;-78
2020/12/09 05:05:07;;;;;;;8.38;6.57;;;;;;;20.30;36.03;99302.69;4977412;28;20533;-77
2020/12/09 05:07:36;;;;;;;8.10;6.65;;;;;;;20.28;35.82;99304.50;4993329;28;20030;-79
2020/12/09 05:10:06;;;;;;;7.55;6.15;;;;;;;20.26;35.68;99298.44;4994692;28;20525;-79
2020/12/09 05:12:43;;;;;;;8.63;6.90;;;;;;;20.22;36.14;99299.44;4994429;28;20034;-78
2020/12/09 05:15:16;;;;;;;8.30;6.47;;;;;;;20.21;36.29;99295.09;4993226;28;20237;-75
2020/12/09 05:17:50;;;;;;;8.13;6.20;;;;;;;20.21;36.25;99298.59;4996006;28;20508;-76
2020/12/09 05:20:24;;;;;;;7.82;5.82;;;;;;;20.22;36.00;99299.44;5011721;28;20042;-78
2020/12/09 05:22:53;;;;;;;7.25;6.22;;;;;;;20.24;36.05;99297.63;5012763;28;20041;-78
2020/12/09 05:25:20;;;;;;;7.68;6.15;;;;;;;20.24;36.19;99297.63;5012344;28;20088;-78
2020/12/09 05:27:46;;;;;;;6.35;5.50;;;;;;;20.26;35.89;99302.81;5012850;28;20071;-74
2020/12/09 05:30:11;;;;;;;7.68;5.75;;;;;;;20.26;35.87;99306.31;5012238;28;20468;-77
2020/12/09 05:32:53;;;;;;;7.80;6.13;;;;;;;20.26;36.16;99308.09;5013702;28;20026;-78
2020/12/09 05:35:18;;;;;;;7.32;5.60;;;;;;;20.28;35.92;99301.00;5012368;28;20025;-79
2020/12/09 05:37:44;;;;;;;7.53;5.63;;;;;;;20.28;36.07;99309.75;4992758;28;20030;-78
2020/12/09 05:40:09;;;;;;;7.25;5.88;;;;;;;20.28;36.11;99312.41;5009000;28;20065;-77
2020/12/09 05:42:34;;;;;;;6.72;5.32;;;;;;;20.29;36.11;99310.59;5008863;28;20041;-77
2020/12/09 05:45:00;;;;;;;6.22;5.22;;;;;;;20.29;36.23;99311.47;4993647;28;20046;-79
2020/12/09 05:47:25;;;;;;;7.88;5.82;;;;;;;20.30;35.85;99305.31;4976651;28;20080;-80
2020/12/09 05:49:51;;;;;;;6.40;5.22;;;;;;;20.32;36.06;99311.34;4991490;28;20369;-79
2020/12/09 05:52:18;;;;;;;6.20;5.20;;;;;;;20.31;36.09;99314.06;4993851;28;20133;-77
2020/12/09 05:54:53;;;;;;;6.13;5.10;;;;;;;20.29;35.71;99306.22;4993968;28;20035;-78
2020/12/09 05:57:23;;;;;;;6.15;5.22;;;;;;;20.30;36.10;99307.06;4976127;28;20026;-78
2020/12/09 05:59:49;;;;;;;5.68;4.82;;;;;;;20.28;36.24;99309.75;4975917;28;20410;-75
2020/12/09 06:02:19;;;;;;;6.82;4.95;;;;;;;20.26;35.84;99314.22;5008879;28;20037;-78
2020/12/09 06:04:45;;;;;;;5.93;4.65;;;;;;;20.28;35.85;99309.75;4993881;28;20030;-77
2020/12/09 06:07:11;;;;;;;6.93;4.50;;;;;;;20.27;36.02;99312.44;4993723;28;20035;-78
2020/12/09 06:09:38;;;;;;;6.50;5.00;;;;;;;20.25;36.07;99307.25;4993772;28;20376;-77
2020/12/09 06:12:04;;;;;;;6.07;4.40;;;;;;;20.28;35.72;99316.78;4993371;28;20096;-79
2020/12/09 06:14:29;;;;;;;6.15;4.75;;;;;;;20.28;35.89;99319.41;4992392;28;20022;-79
2020/12/09 06:16:55;;;;;;;5.82;4.38;;;;;;;20.27;36.17;99318.56;5011307;28;20041;-76
2020/12/09 06:19:21;;;;;;;5.72;4.40;;;;;;;20.28;36.14;99317.66;5012745;28;20056;-79
2020/12/09 06:21:53;;;;;;;5.80;4.63;;;;;;;20.24;36.16;99311.63;5012004;28;20038;-79
2020/12/09 06:24:19;;;;;;;5.22;4.38;;;;;;;20.26;36.03;99318.59;5011563;28;20034;-76
2020/12/09 06:26:48;;;;;;;6.80;4.47;;;;;;;20.26;36.12;99316.84;5013951;28;20045;-75
2020/12/09 06:29:13;;;;;;;6.57;4.50;;;;;;;20.27;35.91;99317.69;5011098;28;20399;-74
2020/12/09 06:31:39;;;;;;;9.55;4.78;;;;;;;20.27;36.06;99317.69;5015126;28;20044;-74
2020/12/09 06:34:13;;;;;;;6.70;4.47;;;;;;;20.28;36.10;99319.41;5029654;28;20121;-76
2020/12/09 06:36:38;;;;;;;8.02;4.55;;;;;;;20.32;36.39;99321.03;5022756;28;20038;-78
2020/12/09 06:39:04;;;;;;;7.75;4.70;;;;;;;20.35;36.32;99318.28;5011599;28;20029;-75
2020/12/09 06:41:29;;;;;;;11.48;4.75;;;;;;;20.32;36.20;99321.03;5012677;28;20040;-76
2020/12/09 06:44:06;;;;;;;7.88;4.60;;;;;;;20.34;36.34;99321.84;5012439;28;20056;-76
2020/12/09 06:46:48;;;;;;;11.05;4.75;;;;;;;20.36;36.14;99327.91;5012498;28;20034;-76
2020/12/09 06:49:29;;;;;;;8.18;4.28;;;;;;;20.36;36.24;99330.53;4992167;28;20037;-74
2020/12/09 06:52:09;;;;;;;12.15;4.80;;;;;;;20.37;36.39;99334.88;5005977;28;20117;-76
2020/12/09 06:54:53;;;;;;;4.80;4.03;;;;;;;20.38;36.38;99329.56;5012515;28;20042;-81
2020/12/09 06:57:25;;;;;;;7.40;4.35;;;;;;;20.41;36.26;99328.56;5001144;28;20042;-78
2020/12/09 07:00:11;;;;;;;11.65;4.70;;;;;;;20.42;36.27;99345.25;4992130;28;20053;-77
2020/12/09 07:02:41;;;;;;;7.45;4.05;;;;;;;20.42;36.37;99338.19;4992990;28;20076;-76
2020/12/09 07:05:08;;;;;;;6.20;4.10;;;;;;;20.43;36.43;99331.19;4993149;28;20061;-77
2020/12/09 07:07:34;;;;;;;8.52;4.07;;;;;;;20.41;36.55;99340.91;4992763;28;20165;-76
2020/12/09 07:10:01;;;;;;;9.48;4.78;;;;;;;20.40;36.45;99340.00;4992364;28;20038;-76
2020/12/09 07:12:27;;;;;;;9.25;4.40;;;;;;;20.38;36.45;99340.09;4992275;28;20483;-77
2020/12/09 07:14:57;;;;;;;6.63;4.13;;;;;;;20.38;36.55;99340.09;4991552;28;20030;-76
2020/12/09 07:17:25;;;;;;;9.88;4.22;;;;;;;20.37;36.59;99333.09;4992619;28;20026;-77
2020/12/09 07:19:53;;;;;;;7.32;4.38;;;;;;;20.37;36.47;99333.09;4992911;28;20490;-74
2020/12/09 07:22:23;;;;;;;11.02;4.30;;;;;;;20.42;36.14;99343.47;4991718;28;20569;-79
2020/12/09 07:24:51;;;;;;;19.10;5.78;;;;;;;20.36;36.21;99341.06;5035312;28;20580;-76
2020/12/09 07:27:18;;;;;;;18.13;5.72;;;;;;;20.35;36.36;99345.44;4996131;28;20360;-74
2020/12/09 07:29:44;;;;;;;25.00;6.07;;;;;;;20.35;36.37;99340.19;4993735;28;20081;-74
2020/12/09 07:32:11;;;;;;;20.70;6.18;;;;;;;20.34;36.09;99354.25;4995156;28;20038;-77
2020/12/09 07:34:51;;;;;;;29.55;5.95;;;;;;;20.33;36.18;99355.16;5003177;28;20030;-75
2020/12/09 07:37:17;;;;;;;28.42;5.95;;;;;;;20.32;36.33;99357.88;5002690;28;20074;-75
2020/12/09 07:39:44;;;;;;;20.35;6.32;;;;;;;20.32;36.26;99360.50;4999589;28;20029;-74
2020/12/09 07:42:09;;;;;;;24.92;5.75;;;;;;;20.33;36.36;99355.16;4999664;28;20038;-78
2020/12/09 07:44:42;;;;;;;28.65;5.30;;;;;;;20.32;36.52;99355.22;4995074;28;20531;-77
2020/12/09 07:47:08;;;;;;;21.05;5.68;;;;;;;20.32;36.28;99350.81;5002985;28;20026;-77
2020/12/09 07:49:35;;;;;;;23.20;5.50;;;;;;;20.33;36.47;99357.81;5000230;28;20026;-78
2020/12/09 07:52:17;;;;;;;15.00;4.72;;;;;;;20.30;36.23;99355.31;5005805;28;20030;-76
2020/12/09 07:54:44;;;;;;;16.33;4.85;;;;;;;20.32;36.10;99353.44;5003219;28;20037;-74
2020/12/09 07:57:09;;;;;;;15.18;4.72;;;;;;;20.35;36.26;99357.75;5007708;28;20533;-75
2020/12/09 07:59:34;;;;;;;13.02;4.38;;;;;;;20.33;36.25;99349.06;4995976;28;20034;-73
2020/12/09 08:02:17;;;;;;;15.15;5.03;;;;;;;20.34;35.95;99353.41;5003350;28;20038;-76
2020/12/09 08:04:43;;;;;;;21.02;5.22;;;;;;;20.36;36.33;99343.69;5008738;28;20056;-76
2020/12/09 08:07:18;;;;;;;17.30;5.55;;;;;;;20.37;36.19;99345.41;5006949;28;20520;-76
2020/12/09 08:10:07;;;;;;;18.05;4.93;;;;;;;20.39;36.06;99335.69;5011498;28;20050;-76
2020/12/09 08:12:36;;;;;;;23.23;5.47;;;;;;;20.41;36.10;99336.47;5006124;28;20021;-76
2020/12/09 08:15:05;;;;;;;16.20;4.53;;;;;;;20.44;35.90;99335.53;5009983;28;20053;-75
2020/12/09 08:17:32;;;;;;;16.08;4.57;;;;;;;20.47;35.87;99341.53;5010939;28;20025;-74
2020/12/09 08:20:02;;;;;;;20.00;4.80;;;;;;;20.50;35.81;99343.19;5008092;28;20038;-74
2020/12/09 08:22:27;;;;;;;11.05;4.38;;;;;;;20.52;36.00;99341.34;5016714;28;20025;-76
2020/12/09 08:25:04;;;;;;;10.63;4.05;;;;;;;20.56;36.02;99342.09;5009769;28;20403;-75
2020/12/09 08:27:44;;;;;;;10.63;3.60;;;;;;;20.63;35.69;99340.97;5009331;28;20029;-75
2020/12/09 08:30:20;;;;;;;11.65;3.60;;;;;;;20.91;35.52;99335.56;5008052;28;20499;-73
2020/12/09 08:33:13;;;;;;;9.20;4.13;;;;;;;21.61;34.59;99338.16;5008361;28;20088;-73
2020/12/09 08:36:06;;;;;;;10.88;4.05;;;;;;;21.94;34.31;99332.41;5015073;28;20042;-75
2020/12/09 08:38:40;;;;;;;14.85;4.03;;;;;;;22.14;33.77;99325.38;5009563;28;20030;-75
2020/12/09 08:41:11;;;;;;;8.23;3.75;;;;;;;22.31;33.45;99336.06;5013170;28;20084;-74
2020/12/09 08:43:39;;;;;;;6.35;3.67;;;;;;;22.69;32.91;99332.66;5014405;28;20038;-74
2020/12/09 08:46:08;;;;;;;9.48;3.75;;;;;;;22.84;32.94;99327.59;5007766;28;20034;-76
2020/12/09 08:48:34;;;;;;;9.73;4.28;;;;;;;22.78;32.95;99328.75;5009130;28;20026;-74
2020/12/09 08:51:00;;;;;;;11.13;4.35;;;;;;;22.93;32.76;99327.19;5008851;28;20120;-73
2020/12/09 08:53:25;;;;;;;7.68;3.72;;;;;;;23.03;32.87;99315.25;5008198;28;20040;-77
2020/12/09 08:55:51;;;;;;;9.55;4.03;;;;;;;22.95;32.80;99322.69;5011988;28;20040;-76
2020/12/09 08:58:18;;;;;;;11.23;3.65;;;;;;;22.96;32.92;99317.34;5007241;28;20576;-76
2020/12/09 09:00:43;;;;;;;6.13;3.75;;;;;;;;;;5013152;28;20026;-73
2020/12/09 09:03:13;;;;;;;8.35;3.70;;;;;;;22.75;33.49;99315.69;4997998;28;20049;-74
2020/12/09 09:05:42;;;;;;;9.40;3.47;;;;;;;23.52;32.50;99329.72;5005295;28;20038;-73
2020/12/09 09:08:09;;;;;;;6.35;3.72;;;;;;;24.41;31.24;99336.72;5006798;28;20044;-75
2020/12/09 09:10:35;;;;;;;5.13;2.80;;;;;;;25.33;29.96;99341.50;5008037;28;20048;-73
2020/12/09 09:13:01;;;;;;;8.23;3.83;;;;;;;26.24;28.58;99343.38;5009898;28;20065;-78
2020/12/09 09:15:29;;;;;;;6.10;3.75;;;;;;;25.94;28.84;99343.34;5004541;28;20026;-79
2020/12/09 09:17:54;;;;;;;4.20;3.10;;;;;;;24.25;31.33;99342.84;5019550;28;20041;-76
2020/12/09 09:20:20;;;;;;;6.00;2.90;;;;;;;23.45;32.35;99339.75;5007095;28;20109;-76
2020/12/09 09:22:45;;;;;;;6.88;3.15;;;;;;;23.01;33.14;99350.63;5002901;28;20040;-76
2020/12/09 09:25:12;;;;;;;7.13;3.33;;;;;;;22.73;33.57;99357.19;4989077;28;20120;-78
2020/12/09 09:27:40;;;;;;;6.03;3.50;;;;;;;22.58;33.91;99356.06;5016708;28;20054;-76
2020/12/09 09:30:07;;;;;;;4.35;2.80;;;;;;;22.54;34.05;99365.03;5008756;28;20038;-77
2020/12/09 09:32:32;;;;;;;5.30;3.28;;;;;;;22.49;34.21;99363.50;5007182;28;20026;-78
2020/12/09 09:35:00;;;;;;;8.05;3.35;;;;;;;22.46;34.23;99360.97;5011491;28;20442;-76
2020/12/09 09:37:25;;;;;;;3.60;2.83;;;;;;;22.44;34.31;99365.47;5014095;28;20029;-75
2020/12/09 09:39:51;;;;;;;9.20;2.80;;;;;;;22.41;34.42;99362.91;5007481;28;20030;-77
2020/12/09 09:42:19;;;;;;;6.05;2.67;;;;;;;22.41;34.49;99362.91;5003656;28;20090;-73
2020/12/09 09:44:48;;;;;;;4.45;2.70;;;;;;;22.43;34.34;99352.31;5006344;28;20034;-76
2020/12/09 09:47:14;;;;;;;3.80;2.83;;;;;;;22.42;34.68;99348.81;5007329;28;20022;-75
2020/12/09 09:49:40;;;;;;;4.85;3.08;;;;;;;22.43;34.92;99355.81;5005488;28;20119;-76
2020/12/09 09:52:06;;;;;;;3.67;2.88;;;;;;;22.45;34.71;99347.81;5001267;28;20057;-75
2020/12/09 09:54:33;;;;;;;6.78;3.13;;;;;;;22.41;34.86;99347.09;5010986;28;20039;-76
2020/12/09 09:56:59;;;;;;;3.97;2.70;;;;;;;22.41;34.89;99339.16;5011446;28;20498;-75
2020/12/09 09:59:25;;;;;;;5.88;3.13;;;;;;;22.47;34.79;99338.06;5005883;28;20022;-75
2020/12/09 10:01:54;;;;;;;4.47;2.83;;;;;;;22.48;34.89;99339.78;5000553;28;20038;-76
2020/12/09 10:04:23;;;;;;;3.55;2.17;;;;;;;22.51;35.01;99342.28;4998029;28;20034;-75
2020/12/09 10:06:52;;;;;;;3.60;2.60;;;;;;;22.56;34.98;99347.34;4993874;28;20034;-74
2020/12/09 10:09:18;;;;;;;4.05;2.83;;;;;;;22.57;34.63;99343.78;5002132;28;20522;-73
2020/12/09 10:11:43;;;;;;;5.63;2.42;;;;;;;22.62;34.67;99345.28;5013820;28;20034;-75
2020/12/09 10:14:09;;;;;;;6.38;2.53;;;;;;;22.64;34.76;99347.88;5009310;28;20513;-76
2020/12/09 10:16:36;;;;;;;4.22;2.67;;;;;;;22.69;34.74;99355.59;5013150;28;20114;-74
2020/12/09 10:19:03;;;;;;;4.03;2.53;;;;;;;22.71;34.66;99357.22;5008890;28;20080;-75
2020/12/09 10:21:31;;;;;;;5.68;2.83;;;;;;;22.66;34.94;99359.22;4992128;28;20683;-75
2020/12/09 10:24:00;;;;;;;3.50;2.47;;;;;;;22.63;34.92;99357.56;4993766;28;20034;-74
2020/12/09 10:26:27;;;;;;;7.95;6.28;;;;;;;22.62;34.71;99363.78;4994329;28;20117;-77
2020/12/09 10:28:53;;;;;;;10.10;5.65;;;;;;;22.55;34.80;99356.19;4994224;28;20030;-76
2020/12/09 10:31:21;;;;;;;11.15;5.30;;;;;;;22.52;35.01;99365.13;4994355;28;20113;-78
2020/12/09 10:33:47;;;;;;;10.07;5.45;;;;;;;22.54;34.95;99360.63;4994239;28;20066;-75
2020/12/09 10:36:15;;;;;;;9.32;4.93;;;;;;;22.53;34.81;99355.41;4992743;28;20065;-78
2020/12/09 10:38:40;;;;;;;7.00;4.47;;;;;;;22.55;34.94;99366.75;4992808;28;20042;-78
2020/12/09 10:41:09;;;;;;;6.68;4.20;;;;;;;22.54;34.99;99367.69;4993851;28;20037;-74
2020/12/09 10:43:38;;;;;;;6.72;4.50;;;;;;;22.53;35.01;99361.56;4992210;28;20038;-75
2020/12/09 10:46:04;;;;;;;6.85;4.03;;;;;;;22.54;34.95;99352.72;4993422;28;20038;-77
2020/12/09 10:48:29;;;;;;;6.65;4.90;;;;;;;22.55;35.02;99350.91;4993963;28;20061;-81
2020/12/09 10:50:55;;;;;;;6.68;4.10;;;;;;;22.48;35.17;99353.84;5003381;28;20042;-74
2020/12/09 10:53:20;;;;;;;5.75;3.70;;;;;;;22.50;35.09;99349.34;4993525;28;20108;-74
2020/12/09 10:55:46;;;;;;;5.63;4.00;;;;;;;22.48;34.98;99356.50;4993582;28;20073;-74
2020/12/09 10:58:12;;;;;;;8.35;4.43;;;;;;;22.47;35.16;99360.06;4991939;28;20034;-76
2020/12/09 11:00:37;;;;;;;8.15;3.92;;;;;;;22.43;35.16;99360.22;4993108;28;20027;-75
2020/12/09 11:03:02;;;;;;;5.32;3.58;;;;;;;22.33;35.33;99360.63;4993305;28;20030;-75
2020/12/09 11:05:28;;;;;;;5.88;3.80;;;;;;;22.37;35.27;99358.69;4991599;28;20069;-75
2020/12/09 11:07:54;;;;;;;5.45;3.35;;;;;;;22.30;35.39;99358.09;4993136;28;20042;-74
2020/12/09 11:10:20;;;;;;;4.32;3.15;;;;;;;22.33;35.23;99349.22;4993480;28;20085;-74
2020/12/09 11:12:45;;;;;;;4.75;3.35;;;;;;;22.30;35.33;99354.63;4992650;28;20090;-75
2020/12/09 11:15:11;;;;;;;4.75;3.38;;;;;;;22.29;35.21;99352.91;4992734;28;20031;-73
2020/12/09 11:17:36;;;;;;;6.75;3.38;;;;;;;22.28;35.24;99359.09;4993193;28;20030;-73
2020/12/09 11:20:03;;;;;;;5.88;3.33;;;;;;;22.25;35.06;99354.81;4992513;28;20042;-76
2020/12/09 11:22:28;;;;;;;4.10;2.83;;;;;;;22.18;35.45;99366.56;5006929;28;20052;-76
2020/12/09 11:24:53;;;;;;;4.63;3.30;;;;;;;22.20;35.40;99359.44;5026731;28;20041;-74
2020/12/09 11:27:19;;;;;;;4.35;2.90;;;;;;;22.21;35.14;99375.19;5032086;28;20087;-74
2020/12/09 11:29:46;;;;;;;4.10;2.95;;;;;;;22.19;35.25;99378.81;5027687;28;20108;-75
2020/12/09 11:32:12;;;;;;;4.47;3.15;;;;;;;22.16;35.23;99379.81;5012041;28;20030;-78